createdAt,value
2022-08-08T00:01:52.468Z,19.49
2022-08-08T00:04:32.812Z,19.50
2022-08-08T00:07:12.661Z,19.43
2022-08-08T00:10:12.403Z,19.40
2022-08-08T00:12:56.497Z,19.33
2022-08-08T00:15:57.157Z,19.29
2022-08-08T00:18:25.102Z,19.18
2022-08-08T00:21:05.947Z,19.18
2022-08-08T00:23:42.987Z,19.16
2022-08-08T00:26:26.161Z,19.12
2022-08-08T00:29:46.559Z,19.11
2022-08-08T00:32:32.664Z,19.11
2022-08-08T00:35:21.194Z,19.05
2022-08-08T00:38:07.000Z,18.98
2022-08-08T00:41:11.727Z,18.97
2022-08-08T00:43:59.056Z,18.96
2022-08-08T00:46:57.471Z,18.91
2022-08-08T00:50:03.806Z,18.88
2022-08-08T00:52:54.118Z,18.81
2022-08-08T00:56:02.967Z,18.72
2022-08-08T00:59:11.259Z,18.70
2022-08-08T01:02:04.139Z,18.62
2022-08-08T01:05:08.952Z,18.57
2022-08-08T01:07:55.963Z,18.44
2022-08-08T01:10:52.790Z,18.37
2022-08-08T01:13:52.649Z,18.30
2022-08-08T01:16:27.998Z,18.33
2022-08-08T01:20:01.192Z,18.33
2022-08-08T01:22:38.463Z,18.28
2022-08-08T01:25:45.026Z,18.22
2022-08-08T01:28:37.023Z,18.14
2022-08-08T01:31:10.483Z,18.00
2022-08-08T01:34:05.062Z,17.80
2022-08-08T01:36:53.584Z,17.76
2022-08-08T01:39:43.341Z,17.73
2022-08-08T01:42:35.632Z,17.64
2022-08-08T01:45:23.781Z,17.60
2022-08-08T01:48:30.756Z,17.65
2022-08-08T01:51:30.467Z,17.66
2022-08-08T01:55:15.914Z,17.64
2022-08-08T01:57:17.318Z,17.56
2022-08-08T02:00:03.388Z,17.54
2022-08-08T02:03:54.763Z,17.59
2022-08-08T02:06:40.950Z,17.62
2022-08-08T02:10:02.454Z,17.70
2022-08-08T02:12:28.657Z,17.69
2022-08-08T02:15:03.219Z,17.68
2022-08-08T02:18:19.793Z,17.71
2022-08-08T02:21:08.541Z,17.81
2022-08-08T02:24:17.877Z,17.71
2022-08-08T02:26:52.039Z,17.67
2022-08-08T02:29:52.572Z,17.65
2022-08-08T02:32:28.398Z,17.58
2022-08-08T02:35:19.042Z,17.60
2022-08-08T02:38:15.196Z,17.59
2022-08-08T02:41:58.090Z,17.54
2022-08-08T02:44:38.391Z,17.47
2022-08-08T02:47:26.426Z,17.36
2022-08-08T02:50:31.824Z,17.32
2022-08-08T02:53:02.889Z,17.28
2022-08-08T02:55:57.772Z,17.23
2022-08-08T02:58:47.775Z,17.18
2022-08-08T03:02:03.220Z,17.17
2022-08-08T03:05:05.296Z,17.14
2022-08-08T03:07:58.393Z,17.12
2022-08-08T03:10:31.507Z,17.08
2022-08-08T03:13:34.111Z,17.02
2022-08-08T03:16:19.751Z,16.99
2022-08-08T03:19:27.888Z,16.97
2022-08-08T03:21:58.660Z,16.98
2022-08-08T03:24:28.846Z,16.94
2022-08-08T03:27:04.971Z,16.91
2022-08-08T03:29:56.521Z,16.85
2022-08-08T03:32:47.301Z,16.85
2022-08-08T03:35:26.058Z,16.81
2022-08-08T03:37:59.464Z,16.79
2022-08-08T03:40:53.025Z,16.75
2022-08-08T03:43:22.444Z,16.75
2022-08-08T03:46:09.072Z,16.68
2022-08-08T03:49:55.109Z,16.66
2022-08-08T03:51:50.450Z,16.69
2022-08-08T03:54:41.398Z,16.72
2022-08-08T03:58:32.104Z,16.69
2022-08-08T04:00:07.319Z,16.67
2022-08-08T04:02:47.580Z,16.61
2022-08-08T04:05:28.106Z,16.57
2022-08-08T04:08:02.226Z,16.53
2022-08-08T04:10:32.565Z,16.48
2022-08-08T04:13:08.213Z,16.47
2022-08-08T04:15:54.719Z,16.52
2022-08-08T04:18:35.908Z,16.48
2022-08-08T04:21:10.073Z,16.44
2022-08-08T04:24:05.733Z,16.42
2022-08-08T04:26:26.510Z,16.42
2022-08-08T04:29:02.991Z,16.40
2022-08-08T04:31:58.366Z,16.41
2022-08-08T04:34:18.515Z,16.41
2022-08-08T04:36:45.301Z,16.40
2022-08-08T04:40:03.197Z,16.42
2022-08-08T04:42:01.327Z,16.45
2022-08-08T04:44:28.414Z,16.48
2022-08-08T04:47:00.910Z,16.54
2022-08-08T04:49:28.837Z,16.53
2022-08-08T04:52:14.840Z,16.48
2022-08-08T04:54:42.210Z,16.52
2022-08-08T04:57:11.074Z,16.60
2022-08-08T04:59:41.944Z,16.65
2022-08-08T05:02:13.801Z,16.69
2022-08-08T05:04:44.598Z,16.70
2022-08-08T05:07:12.033Z,16.77
2022-08-08T05:09:42.583Z,16.91
2022-08-08T05:12:09.865Z,16.92
2022-08-08T05:14:49.117Z,16.98
2022-08-08T05:17:19.391Z,17.14
2022-08-08T05:20:09.195Z,17.15
2022-08-08T05:22:37.372Z,17.18
2022-08-08T05:25:05.709Z,17.21
2022-08-08T05:27:33.071Z,17.29
2022-08-08T05:30:01.009Z,17.42
2022-08-08T05:32:36.323Z,17.56
2022-08-08T05:35:05.703Z,17.69
2022-08-08T05:37:53.109Z,17.84
2022-08-08T05:40:53.235Z,17.98
2022-08-08T05:44:02.951Z,18.06
2022-08-08T05:46:18.746Z,18.22
2022-08-08T05:48:52.405Z,18.36
2022-08-08T05:51:25.814Z,18.48
2022-08-08T05:54:28.315Z,18.55
2022-08-08T05:56:47.720Z,18.69
2022-08-08T05:59:58.801Z,18.77
2022-08-08T06:02:40.938Z,18.94
2022-08-08T06:05:32.910Z,19.07
2022-08-08T06:08:09.593Z,19.17
2022-08-08T06:10:58.320Z,19.28
2022-08-08T06:13:30.140Z,19.34
2022-08-08T06:16:06.633Z,19.47
2022-08-08T06:18:56.923Z,19.63
2022-08-08T06:21:28.256Z,19.71
2022-08-08T06:24:05.384Z,19.79
2022-08-08T06:27:04.189Z,19.88
2022-08-08T06:29:59.383Z,20.04
2022-08-08T06:32:31.578Z,20.15
2022-08-08T06:36:04.844Z,20.24
2022-08-08T06:38:02.303Z,20.39
2022-08-08T06:40:33.344Z,20.54
2022-08-08T06:43:10.217Z,20.63
2022-08-08T06:46:08.815Z,20.76
2022-08-08T06:48:38.410Z,20.86
2022-08-08T06:51:07.465Z,20.96
2022-08-08T06:53:39.235Z,21.03
2022-08-08T06:56:11.491Z,21.09
2022-08-08T06:58:44.027Z,21.15
2022-08-08T07:02:17.649Z,21.22
2022-08-08T07:04:41.544Z,21.29
2022-08-08T07:07:23.641Z,21.40
2022-08-08T07:10:10.511Z,21.48
2022-08-08T07:12:47.864Z,21.53
2022-08-08T07:16:04.770Z,21.65
2022-08-08T07:18:56.006Z,21.82
2022-08-08T07:21:31.121Z,21.93
2022-08-08T07:24:09.759Z,22.02
2022-08-08T07:26:53.794Z,22.14
2022-08-08T07:30:02.489Z,22.20
2022-08-08T07:32:15.704Z,22.33
2022-08-08T07:34:48.385Z,22.43
2022-08-08T07:37:55.995Z,22.53
2022-08-08T07:40:32.980Z,22.68
2022-08-08T07:43:09.457Z,22.76
2022-08-08T07:46:05.385Z,22.87
2022-08-08T07:48:30.336Z,22.99
2022-08-08T07:51:01.003Z,23.10
2022-08-08T07:54:01.061Z,23.26
2022-08-08T07:56:36.368Z,23.46
2022-08-08T07:59:14.627Z,23.59
2022-08-08T08:02:36.099Z,23.72
2022-08-08T08:04:44.442Z,23.90
2022-08-08T08:07:14.131Z,24.00
2022-08-08T08:09:41.783Z,24.09
2022-08-08T08:12:14.428Z,24.22
2022-08-08T08:15:06.812Z,24.37
2022-08-08T08:17:48.009Z,24.47
2022-08-08T08:20:30.396Z,24.64
2022-08-08T08:23:00.966Z,24.79
2022-08-08T08:25:43.056Z,24.86
2022-08-08T08:28:21.401Z,24.91
2022-08-08T08:30:53.956Z,24.94
2022-08-08T08:33:24.776Z,25.08
2022-08-08T08:36:19.723Z,25.17
2022-08-08T08:38:49.693Z,25.37
2022-08-08T08:41:22.224Z,25.47
2022-08-08T08:43:52.099Z,25.55
2022-08-08T08:46:19.989Z,25.67
2022-08-08T08:48:53.846Z,25.77
2022-08-08T08:51:21.487Z,25.89
2022-08-08T08:53:55.923Z,25.99
2022-08-08T08:56:31.977Z,26.07
2022-08-08T08:59:05.925Z,26.16
2022-08-08T09:01:43.915Z,26.26
2022-08-08T09:04:30.879Z,26.34
2022-08-08T09:07:12.237Z,26.46
2022-08-08T09:09:48.298Z,26.64
2022-08-08T09:12:27.416Z,26.74
2022-08-08T09:14:58.737Z,26.78
2022-08-08T09:17:41.578Z,26.88
2022-08-08T09:22:01.641Z,27.01
2022-08-08T09:23:17.369Z,27.14
2022-08-08T09:26:02.022Z,27.22
2022-08-08T09:29:05.241Z,27.32
2022-08-08T09:32:12.120Z,27.40
2022-08-08T09:34:51.313Z,27.49
2022-08-08T09:37:57.599Z,27.53
2022-08-08T09:59:20.075Z,28.06
2022-08-08T10:02:00.023Z,28.00
2022-08-08T10:04:47.403Z,27.89
2022-08-08T10:07:16.463Z,27.83
2022-08-08T10:09:59.817Z,27.83
2022-08-08T10:12:52.747Z,27.77
2022-08-08T10:15:29.297Z,27.88
2022-08-08T10:18:10.461Z,28.09
2022-08-08T10:21:26.114Z,28.35
2022-08-08T10:24:04.723Z,28.38
2022-08-08T10:26:57.334Z,28.36
2022-08-08T10:30:01.596Z,28.43
2022-08-08T10:32:40.126Z,28.57
2022-08-08T10:36:08.437Z,28.66
2022-08-08T10:38:14.698Z,28.80
2022-08-08T10:40:43.035Z,28.89
2022-08-08T10:43:10.335Z,28.96
2022-08-08T10:45:56.571Z,28.99
2022-08-08T10:48:57.667Z,29.04
2022-08-08T10:51:31.144Z,29.11
2022-08-08T10:54:02.132Z,29.18
2022-08-08T10:56:43.277Z,29.24
2022-08-08T10:59:12.131Z,29.25
2022-08-08T11:01:46.524Z,29.28
2022-08-08T11:04:29.665Z,29.18
2022-08-08T11:07:05.615Z,29.28
2022-08-08T11:09:34.398Z,29.25
2022-08-08T11:12:13.053Z,29.10
2022-08-08T11:14:58.957Z,29.00
2022-08-08T11:17:59.876Z,29.06
2022-08-08T11:20:27.705Z,29.02
2022-08-08T11:22:55.943Z,28.99
2022-08-08T11:25:53.449Z,29.02
2022-08-08T11:28:29.004Z,29.16
2022-08-08T11:30:59.952Z,29.27
2022-08-08T11:33:51.174Z,29.32
2022-08-08T11:36:15.183Z,29.32
2022-08-08T11:38:54.889Z,29.34
2022-08-08T11:41:27.589Z,29.32
2022-08-08T11:43:58.651Z,29.30
2022-08-08T11:46:30.530Z,29.46
2022-08-08T11:49:00.485Z,29.53
2022-08-08T11:51:38.996Z,29.50
2022-08-08T11:54:27.112Z,29.46
2022-08-08T11:57:34.894Z,29.48
2022-08-08T12:00:07.407Z,29.52
2022-08-08T12:02:54.303Z,29.60
2022-08-08T12:05:38.722Z,29.68
2022-08-08T12:08:05.784Z,29.77
2022-08-08T12:10:33.473Z,29.81
2022-08-08T12:13:04.470Z,29.86
2022-08-08T12:15:42.809Z,30.02
2022-08-08T12:18:20.829Z,30.22
2022-08-08T12:20:54.172Z,30.31
2022-08-08T12:23:32.224Z,30.30
2022-08-08T12:26:17.175Z,30.20
2022-08-08T12:28:56.918Z,30.12
2022-08-08T12:31:39.269Z,30.03
2022-08-08T12:34:39.075Z,29.96
2022-08-08T12:37:11.391Z,29.96
2022-08-08T12:40:00.129Z,30.01
2022-08-08T12:42:33.837Z,30.10
2022-08-08T12:45:07.324Z,30.08
2022-08-08T12:48:10.307Z,30.09
2022-08-08T12:50:54.696Z,30.29
2022-08-08T12:53:37.775Z,30.23
2022-08-08T12:56:18.151Z,30.16
2022-08-08T12:58:51.676Z,30.22
2022-08-08T13:01:24.755Z,30.29
2022-08-08T13:04:18.489Z,30.36
2022-08-08T13:07:00.527Z,30.40
2022-08-08T13:10:05.062Z,30.49
2022-08-08T13:12:36.196Z,30.59
2022-08-08T13:15:12.358Z,30.65
2022-08-08T13:18:09.078Z,30.74
2022-08-08T13:20:28.061Z,30.79
2022-08-08T13:23:30.175Z,30.99
2022-08-08T13:25:43.650Z,31.15
2022-08-08T13:28:28.534Z,30.99
2022-08-08T13:31:00.122Z,30.86
2022-08-08T13:33:28.941Z,30.96
2022-08-08T13:36:10.839Z,30.86
2022-08-08T13:38:38.439Z,30.78
2022-08-08T13:41:07.018Z,30.73
2022-08-08T13:43:47.597Z,30.72
2022-08-08T13:46:26.747Z,30.74
2022-08-08T13:50:33.491Z,30.70
2022-08-08T13:52:07.858Z,30.51
2022-08-08T13:54:44.207Z,30.46
2022-08-08T14:00:15.674Z,30.65
2022-08-08T14:02:42.558Z,30.77
2022-08-08T14:05:21.565Z,30.93
2022-08-08T14:07:51.967Z,31.03
2022-08-08T14:10:33.301Z,31.10
2022-08-08T14:13:09.915Z,31.04
2022-08-08T14:15:50.186Z,30.90
2022-08-08T14:18:35.865Z,30.86
2022-08-08T14:21:20.545Z,30.78
2022-08-08T14:24:07.943Z,30.71
2022-08-08T14:26:45.824Z,30.58
2022-08-08T14:29:27.158Z,30.60
2022-08-08T14:32:09.064Z,30.76
2022-08-08T14:34:42.762Z,30.82
2022-08-08T14:37:12.942Z,30.82
2022-08-08T14:40:06.491Z,30.86
2022-08-08T14:42:54.432Z,30.89
2022-08-08T14:45:33.776Z,30.99
2022-08-08T14:48:10.875Z,31.03
2022-08-08T14:50:39.739Z,31.03
2022-08-08T14:53:13.627Z,31.05
2022-08-08T14:55:42.996Z,31.07
2022-08-08T14:58:16.139Z,31.11
2022-08-08T15:00:47.872Z,31.11
2022-08-08T15:03:16.941Z,31.15
2022-08-08T15:05:53.588Z,31.29
2022-08-08T15:08:34.212Z,31.33
2022-08-08T15:11:04.800Z,31.20
2022-08-08T15:13:35.148Z,31.08
2022-08-08T15:16:12.130Z,31.00
2022-08-08T15:18:49.911Z,31.01
2022-08-08T15:21:18.795Z,31.09
2022-08-08T15:23:51.181Z,31.10
2022-08-08T15:26:25.730Z,31.24
2022-08-08T15:28:53.904Z,31.37
2022-08-08T15:31:25.948Z,31.54
2022-08-08T15:34:18.599Z,31.76
2022-08-08T15:37:03.277Z,32.11
2022-08-08T15:39:37.976Z,32.72
2022-08-08T15:42:10.131Z,34.07
2022-08-08T15:44:38.536Z,36.78
2022-08-08T15:47:07.308Z,40.72
2022-08-08T15:49:44.331Z,45.50
2022-08-08T15:52:15.012Z,49.17
2022-08-08T15:54:43.074Z,51.79
2022-08-08T15:57:15.196Z,53.90
2022-08-08T16:00:06.472Z,55.60
2022-08-08T16:02:50.467Z,57.05
2022-08-08T16:05:18.976Z,57.95
2022-08-08T16:07:51.433Z,58.53
2022-08-08T16:13:05.740Z,59.34
2022-08-08T16:13:30.177Z,59.98
2022-08-08T16:15:57.984Z,60.61
2022-08-08T16:18:32.302Z,61.04
2022-08-08T16:21:01.020Z,60.81
2022-08-08T16:23:31.926Z,60.85
2022-08-08T16:26:12.754Z,61.25
2022-08-08T16:28:41.683Z,61.38
2022-08-08T16:31:09.383Z,61.42
2022-08-08T16:33:39.241Z,60.90
2022-08-08T16:36:15.718Z,60.60
2022-08-08T16:38:53.684Z,60.51
2022-08-08T16:41:23.341Z,60.17
2022-08-08T16:43:52.225Z,60.28
2022-08-08T16:46:43.974Z,59.19
2022-08-08T16:49:08.826Z,58.95
2022-08-08T16:54:59.753Z,58.04
2022-08-08T16:55:06.260Z,58.77
2022-08-08T16:58:11.749Z,57.12
2022-08-08T17:00:08.969Z,57.24
2022-08-08T17:02:44.299Z,57.46
2022-08-08T17:05:13.773Z,57.72
2022-08-08T17:07:41.869Z,57.40
2022-08-08T17:10:19.137Z,57.07
2022-08-08T17:12:52.976Z,56.79
2022-08-08T17:15:22.939Z,56.63
2022-08-08T17:18:03.165Z,56.58
2022-08-08T17:20:39.647Z,56.48
2022-08-08T17:23:18.293Z,56.08
2022-08-08T17:25:55.106Z,55.73
2022-08-08T17:28:34.749Z,54.87
2022-08-08T17:31:44.186Z,53.42
2022-08-08T17:34:52.981Z,49.86
2022-08-08T17:36:47.917Z,45.92
2022-08-08T17:40:04.945Z,41.77
2022-08-08T17:42:14.389Z,39.51
2022-08-08T17:44:44.291Z,37.92
2022-08-08T17:47:11.383Z,36.49
2022-08-08T17:49:52.604Z,35.23
2022-08-08T17:52:23.126Z,34.53
2022-08-08T17:54:51.996Z,33.94
2022-08-08T17:57:23.787Z,33.31
2022-08-08T17:59:51.779Z,32.91
2022-08-08T18:02:29.007Z,32.49
2022-08-08T18:04:58.579Z,32.26
2022-08-08T18:08:04.012Z,31.91
2022-08-08T18:10:15.343Z,31.71
2022-08-08T18:12:42.843Z,31.49
2022-08-08T18:15:14.327Z,31.18
2022-08-08T18:18:09.724Z,30.81
2022-08-08T18:20:37.249Z,30.56
2022-08-08T18:23:15.408Z,30.45
2022-08-08T18:25:45.246Z,30.33
2022-08-08T18:28:13.571Z,30.30
2022-08-08T18:30:42.964Z,30.09
2022-08-08T18:33:36.832Z,29.92
2022-08-08T18:36:02.662Z,29.70
2022-08-08T18:38:30.879Z,29.65
2022-08-08T18:41:00.760Z,29.54
2022-08-08T18:43:42.769Z,29.35
2022-08-08T18:46:55.906Z,29.25
2022-08-08T18:49:01.638Z,29.01
2022-08-08T18:51:54.231Z,28.84
2022-08-08T18:54:22.475Z,28.71
2022-08-08T18:56:57.445Z,28.60
2022-08-08T18:59:34.307Z,28.42
2022-08-08T19:02:25.620Z,28.26
2022-08-08T19:04:52.222Z,28.05
2022-08-08T19:07:23.430Z,27.85
2022-08-08T19:10:14.373Z,27.68
2022-08-08T19:12:44.371Z,27.61
2022-08-08T19:15:12.494Z,27.42
2022-08-08T19:17:48.320Z,27.28
2022-08-08T19:20:30.612Z,27.05
2022-08-08T19:22:59.605Z,26.92
2022-08-08T19:26:01.296Z,26.71
2022-08-08T19:28:19.335Z,26.56
2022-08-08T19:31:03.417Z,26.42
2022-08-08T19:33:51.662Z,26.15
2022-08-08T19:36:25.178Z,25.91
2022-08-08T19:38:56.351Z,25.85
2022-08-08T19:41:31.502Z,25.74
2022-08-08T19:44:03.324Z,25.66
2022-08-08T19:46:33.153Z,25.52
2022-08-08T19:49:03.148Z,25.45
2022-08-08T19:51:34.203Z,25.34
2022-08-08T19:54:08.436Z,25.24
2022-08-08T19:56:41.414Z,25.22
2022-08-08T19:59:15.794Z,25.08
2022-08-08T20:02:03.117Z,24.94
2022-08-08T20:04:31.724Z,24.80
2022-08-08T20:07:03.519Z,24.70
2022-08-08T20:09:32.674Z,24.68
2022-08-08T20:12:11.185Z,24.53
2022-08-08T20:14:42.301Z,24.55
2022-08-08T20:17:27.026Z,24.48
2022-08-08T20:19:55.242Z,24.28
2022-08-08T20:22:30.575Z,24.21
2022-08-08T20:25:00.348Z,24.12
2022-08-08T20:27:27.354Z,24.08
2022-08-08T20:30:55.927Z,23.90
2022-08-08T20:32:58.931Z,23.85
2022-08-08T20:35:57.541Z,23.76
2022-08-08T20:38:14.367Z,23.61
2022-08-08T20:40:42.523Z,23.58
2022-08-08T20:43:22.906Z,23.56
2022-08-08T20:46:03.865Z,23.52
2022-08-08T20:48:31.977Z,23.49
2022-08-08T20:51:06.060Z,23.45
2022-08-08T20:53:59.825Z,23.29
2022-08-08T20:56:20.788Z,23.08
2022-08-08T20:59:06.332Z,22.85
2022-08-08T21:02:05.267Z,22.78
2022-08-08T21:04:24.117Z,22.78
2022-08-08T21:06:55.130Z,22.69
2022-08-08T21:09:22.058Z,22.67
2022-08-08T21:11:52.052Z,22.72
2022-08-08T21:14:34.521Z,22.78
2022-08-08T21:17:06.773Z,22.61
2022-08-08T21:19:45.711Z,22.55
2022-08-08T21:22:14.043Z,22.49
2022-08-08T21:24:42.104Z,22.47
2022-08-08T21:28:09.202Z,22.65
2022-08-08T21:30:39.402Z,22.62
2022-08-08T21:33:10.954Z,22.57
2022-08-08T21:36:14.662Z,22.56
2022-08-08T21:38:27.455Z,22.53
2022-08-08T21:40:57.092Z,22.55
2022-08-08T21:43:33.932Z,22.55
2022-08-08T21:48:07.780Z,22.50
2022-08-08T21:48:53.504Z,22.43
2022-08-08T21:54:16.752Z,22.52
2022-08-08T21:54:31.173Z,22.60
2022-08-08T21:57:01.804Z,22.67
2022-08-08T22:00:01.374Z,22.79
2022-08-08T22:02:23.298Z,22.91
2022-08-08T22:04:58.578Z,22.78
2022-08-08T22:07:40.230Z,22.83
2022-08-08T22:10:28.703Z,22.92
2022-08-08T22:13:16.945Z,23.01
2022-08-08T22:15:58.905Z,23.14
2022-08-08T22:18:33.008Z,23.09
2022-08-08T22:21:14.484Z,23.11
2022-08-08T22:23:50.676Z,23.03
2022-08-08T22:26:28.733Z,23.02
2022-08-08T22:29:13.254Z,22.93
2022-08-08T22:31:58.245Z,22.88
2022-08-08T22:34:29.433Z,22.94
2022-08-08T22:36:56.122Z,22.95
2022-08-08T22:39:22.810Z,22.94
2022-08-08T22:42:10.305Z,22.74
2022-08-08T22:44:37.828Z,22.64
2022-08-08T22:47:17.699Z,22.64
2022-08-08T22:49:45.081Z,22.63
2022-08-08T22:52:25.931Z,22.56
2022-08-08T22:55:04.670Z,22.54
2022-08-08T22:57:44.418Z,22.52
2022-08-08T23:00:16.885Z,22.43
2022-08-08T23:02:50.349Z,22.39
2022-08-08T23:05:18.084Z,22.24
2022-08-08T23:07:56.922Z,22.26
2022-08-08T23:10:26.679Z,22.10
2022-08-08T23:12:54.091Z,22.03
2022-08-08T23:16:42.155Z,21.98
2022-08-08T23:18:11.629Z,21.94
2022-08-08T23:20:43.346Z,21.89
2022-08-08T23:23:11.647Z,21.78
2022-08-08T23:25:45.460Z,21.71
2022-08-08T23:28:15.547Z,21.63
2022-08-08T23:30:44.679Z,21.52
2022-08-08T23:33:19.464Z,21.49
2022-08-08T23:36:07.488Z,21.40
2022-08-08T23:38:36.853Z,21.26
2022-08-08T23:41:17.475Z,21.16
2022-08-08T23:43:51.070Z,21.22
2022-08-08T23:49:01.799Z,21.23
2022-08-08T23:49:18.849Z,21.20
2022-08-08T23:52:04.592Z,21.12
2022-08-08T23:54:43.800Z,21.04
2022-08-08T23:57:38.738Z,21.02
